Time;durP1;ratioP1;P1;durP2;ratioP2;P2;SDS_P1;SDS_P2;PMS_P1;PMS_P2;Temp;Humidity;BMP_temperature;BMP_pressure;BME280_temperature;BME280_humidity;BME280_pressure;Samples;Min_cycle;Max_cycle;Signal;HPM_P1;HPM_P2
2022/02/02 00:02:19;;;;;;;33.57;4.93;;;;;;;8.14;100.00;101713.91;5079283;28;20360;-72
2022/02/02 00:04:48;;;;;;;36.05;5.38;;;;;;;8.12;100.00;101726.97;5058241;28;20535;-72
2022/02/02 00:09:50;;;;;;;46.78;5.82;;;;;;;8.08;100.00;101710.25;5079579;28;20039;-71
2022/02/02 00:12:25;;;;;;;40.95;6.97;;;;;;;8.06;100.00;101711.00;5075879;28;20035;-71
2022/02/02 00:15:01;;;;;;;31.33;5.15;;;;;;;8.06;100.00;101713.63;5075127;28;20024;-72
2022/02/02 00:17:44;;;;;;;37.67;5.55;;;;;;;8.06;100.00;101704.03;5082629;28;20082;-73
2022/02/02 00:20:29;;;;;;;42.22;5.85;;;;;;;8.08;100.00;101715.47;5056918;28;20044;-72
2022/02/02 00:22:58;;;;;;;43.92;6.03;;;;;;;8.06;100.00;101717.13;5079194;28;20025;-71
2022/02/02 00:25:31;;;;;;;41.85;6.90;;;;;;;8.09;100.00;101711.13;5076685;28;20213;-72
2022/02/02 00:27:59;;;;;;;43.90;5.33;;;;;;;8.08;100.00;101722.44;5055319;28;20032;-71
2022/02/02 00:30:29;;;;;;;48.38;6.35;;;;;;;8.06;100.00;101717.13;5077128;28;20031;-71
2022/02/02 00:35:31;;;;;;;42.92;6.93;;;;;;;8.04;100.00;101702.19;5085241;28;20028;-71
2022/02/02 00:37:57;;;;;;;39.78;5.68;;;;;;;8.01;100.00;101704.69;5078486;28;20028;-72
2022/02/02 00:40:22;;;;;;;44.42;6.45;;;;;;;8.03;100.00;101708.25;5080911;28;20557;-71
2022/02/02 00:42:50;;;;;;;35.90;7.68;;;;;;;7.98;100.00;101718.56;5083656;28;20418;-71
2022/02/02 00:45:16;;;;;;;49.05;6.32;;;;;;;7.91;100.00;101716.50;5078472;28;20063;-71
2022/02/02 00:47:46;;;;;;;38.55;6.15;;;;;;;7.88;100.00;101711.13;5059364;28;20025;-72
2022/02/02 00:50:12;;;;;;;53.85;6.35;;;;;;;7.86;100.00;101724.16;5095268;28;20096;-72
2022/02/02 00:52:38;;;;;;;43.05;7.03;;;;;;;7.83;100.00;101724.06;5076806;28;20036;-72
2022/02/02 00:55:03;;;;;;;48.10;5.68;;;;;;;7.80;100.00;101725.63;5095771;28;20039;-72
2022/02/02 00:57:29;;;;;;;35.80;5.68;;;;;;;7.79;100.00;101729.09;5073865;28;20059;-72
2022/02/02 00:59:56;;;;;;;44.03;6.53;;;;;;;7.78;100.00;101727.31;5098655;28;20490;-72
2022/02/02 01:02:21;;;;;;;38.40;6.40;;;;;;;7.77;100.00;101734.25;5077130;28;20494;-71
2022/02/02 01:04:47;;;;;;;36.45;6.10;;;;;;;7.80;100.00;101738.72;5095104;28;20050;-72
2022/02/02 01:07:21;;;;;;;41.53;5.85;;;;;;;7.78;100.00;101746.53;5100530;28;20387;-71
2022/02/02 01:12:42;;;;;;;;;;;;;;;7.83;100.00;101725.78;5101712;28;20515;-72
2022/02/02 01:18:14;;;;;;;;;;;;;;;7.81;100.00;101753.63;5094264;28;20078;-72
2022/02/02 01:20:56;;;;;;;40.30;6.70;;;;;;;7.82;100.00;101752.81;5093589;28;20286;-72
2022/02/02 01:28:35;;;;;;;43.80;6.72;;;;;;;7.79;100.00;101734.34;5096573;28;20058;-72
2022/02/02 01:31:01;;;;;;;38.20;5.40;;;;;;;7.78;100.00;101750.88;5101129;28;20492;-72
2022/02/02 01:33:27;;;;;;;44.65;8.45;;;;;;;7.74;100.00;101739.38;5110270;28;20034;-72
2022/02/02 01:35:53;;;;;;;39.50;5.80;;;;;;;7.71;100.00;101745.38;5106005;28;20426;-72
2022/02/02 01:38:20;;;;;;;42.67;6.38;;;;;;;7.73;100.00;101733.25;5104299;28;20060;-71
2022/02/02 01:40:52;;;;;;;39.65;6.88;;;;;;;7.73;100.00;101733.25;5098862;28;20036;-72
2022/02/02 01:43:22;;;;;;;49.75;6.85;;;;;;;7.69;100.00;101756.63;5104284;28;20091;-72
2022/02/02 01:45:55;;;;;;;49.33;5.95;;;;;;;7.69;100.00;101773.25;5105392;28;20019;-72
2022/02/02 01:48:40;;;;;;;48.95;6.28;;;;;;;7.69;100.00;101765.38;5106134;28;20174;-72
2022/02/02 01:56:03;;;;;;;44.88;7.05;;;;;;;7.59;100.00;101786.75;5098694;28;20043;-73
2022/02/02 02:01:09;;;;;;;48.85;6.10;;;;;;;7.58;100.00;101790.19;5097486;28;20027;-72
2022/02/02 02:03:35;;;;;;;45.63;6.72;;;;;;;7.62;100.00;101806.97;5098177;28;20106;-73
2022/02/02 02:06:01;;;;;;;50.10;7.03;;;;;;;7.64;100.00;101793.09;5099262;28;20399;-72
2022/02/02 02:08:27;;;;;;;35.90;5.38;;;;;;;7.64;100.00;101798.34;5102667;28;20042;-73
2022/02/02 02:10:53;;;;;;;47.35;6.43;;;;;;;7.66;100.00;101807.16;5098619;28;20031;-73
2022/02/02 02:16:04;;;;;;;50.78;7.57;;;;;;;7.75;100.00;101815.41;5066057;28;20157;-72
2022/02/02 02:18:29;;;;;;;47.65;6.22;;;;;;;7.79;100.00;101792.00;5099620;28;20028;-72
2022/02/02 02:20:56;;;;;;;44.97;6.78;;;;;;;7.80;100.00;101801.63;5097762;28;20111;-73
2022/02/02 02:23:21;;;;;;;51.25;6.07;;;;;;;7.82;100.00;101794.72;5100097;28;20027;-73
2022/02/02 02:25:47;;;;;;;38.42;5.40;;;;;;;7.82;100.00;101785.13;5086286;28;20028;-72
2022/02/02 02:30:58;;;;;;;63.63;7.00;;;;;;;7.87;100.00;101783.63;5100057;28;20036;-72
2022/02/02 02:39:25;;;;;;;36.15;5.47;;;;;;;7.89;100.00;101796.78;5096602;28;19923;-72
2022/02/02 02:55:54;;;;;;;32.92;4.93;;;;;;;7.96;100.00;101774.34;5095891;28;20043;-71
2022/02/02 03:01:14;;;;;;;33.50;6.47;;;;;;;7.92;100.00;101771.59;5097942;28;20024;-70
2022/02/02 03:31:10;;;;;;;37.25;5.43;;;;;;;7.96;100.00;101785.72;5093969;28;20043;-71
2022/02/02 03:53:03;;;;;;;46.17;6.07;;;;;;;7.90;100.00;101783.72;5100131;28;20290;-72
2022/02/02 03:58:14;;;;;;;;;;;;;;;7.89;100.00;101788.91;5099587;28;20082;-72
2022/02/02 04:05:52;;;;;;;43.05;5.28;;;;;;;7.89;100.00;101805.53;5103242;27;20039;-72
2022/02/02 04:08:26;;;;;;;43.70;5.53;;;;;;;7.89;100.00;101808.13;5099210;28;20027;-72
2022/02/02 04:10:54;;;;;;;;;;;;;;;7.90;100.00;101803.81;5105866;28;20489;-73
2022/02/02 04:13:37;;;;;;;38.30;5.85;;;;;;;7.90;100.00;101799.47;5089004;28;19959;-73
2022/02/02 04:51:45;;;;;;;47.42;5.72;;;;;;;7.82;100.00;101841.91;5097324;28;20063;-72
2022/02/02 04:57:06;;;;;;;44.80;7.00;;;;;;;7.82;100.00;101853.25;5094479;28;20088;-72
2022/02/02 04:59:33;;;;;;;48.25;6.55;;;;;;;7.78;100.00;101845.22;5093470;28;20043;-72
2022/02/02 05:10:06;;;;;;;43.30;6.60;;;;;;;7.75;100.00;101852.09;5094550;28;20483;-72
2022/02/02 05:27:01;;;;;;;39.05;6.22;;;;;;;7.74;100.00;101870.38;5100039;28;20035;-72
2022/02/02 05:53:22;;;;;;;57.15;6.45;;;;;;;7.56;100.00;101888.78;5104689;28;20161;-72
2022/02/02 05:55:49;;;;;;;41.22;7.80;;;;;;;7.60;100.00;101888.09;5092999;28;20038;-71
2022/02/02 05:58:15;;;;;;;41.65;5.53;;;;;;;7.58;100.00;101884.50;5095515;28;20170;-71
2022/02/02 06:00:41;;;;;;;55.08;6.95;;;;;;;7.60;100.00;101890.72;5100206;28;20024;-72
2022/02/02 06:03:11;;;;;;;40.33;5.30;;;;;;;7.61;100.00;101889.91;5079280;28;20118;-71
2022/02/02 06:05:38;;;;;;;49.47;6.63;;;;;;;7.63;100.00;101895.19;5096729;28;20509;-71
2022/02/02 06:08:09;;;;;;;43.15;5.63;;;;;;;7.62;100.00;101901.25;5104384;28;20174;-71
2022/02/02 06:10:35;;;;;;;43.80;5.45;;;;;;;7.62;100.00;101894.28;5095246;28;20031;-72
2022/02/02 06:13:01;;;;;;;35.10;5.75;;;;;;;7.63;100.00;101901.31;5100985;28;20031;-73
2022/02/02 06:15:27;;;;;;;48.20;5.40;;;;;;;7.57;100.00;101901.06;5090032;28;20139;-72
2022/02/02 06:17:53;;;;;;;36.03;5.78;;;;;;;7.58;100.00;101913.31;5095864;28;20040;-70
2022/02/02 06:20:20;;;;;;;40.78;6.03;;;;;;;7.58;100.00;101913.31;5101206;28;20046;-70
2022/02/02 06:23:01;;;;;;;50.63;6.55;;;;;;;7.58;100.00;101910.69;5096766;28;20479;-70
2022/02/02 06:25:32;;;;;;;42.97;5.40;;;;;;;7.54;100.00;101925.38;5097549;28;20036;-71
2022/02/02 06:28:05;;;;;;;46.28;6.45;;;;;;;7.57;100.00;101919.41;5095185;28;20415;-71
2022/02/02 06:30:33;;;;;;;46.53;6.28;;;;;;;7.56;100.00;101917.59;5082664;28;20035;-71
2022/02/02 06:33:04;;;;;;;40.95;5.63;;;;;;;7.56;100.00;101918.47;5098849;28;20388;-70
2022/02/02 06:35:30;;;;;;;43.60;6.00;;;;;;;7.48;100.00;101922.47;5099536;28;20027;-71
2022/02/02 06:37:56;;;;;;;42.20;6.50;;;;;;;7.46;100.00;101921.50;5099624;28;20472;-71
2022/02/02 06:40:23;;;;;;;39.45;6.47;;;;;;;7.45;100.00;101943.28;5084129;28;20100;-72
2022/02/02 06:42:50;;;;;;;30.73;4.93;;;;;;;7.41;100.00;101949.19;5103535;28;20039;-71
2022/02/02 06:45:17;;;;;;;47.13;7.68;;;;;;;7.37;100.00;101947.25;5096082;28;20103;-71
2022/02/02 06:47:44;;;;;;;42.80;5.53;;;;;;;7.35;100.00;101954.13;5099979;28;20414;-70
2022/02/02 06:53:22;;;;;;;38.65;6.63;;;;;;;7.34;100.00;101936.63;5061906;28;20039;-71
2022/02/02 06:56:03;;;;;;;45.65;5.32;;;;;;;7.34;100.00;101927.06;5081387;28;20379;-70
2022/02/02 06:58:53;;;;;;;36.15;4.57;;;;;;;7.28;100.00;101947.69;5098879;28;20080;-71
2022/02/02 07:04:23;;;;;;;39.03;5.88;;;;;;;7.35;100.00;101962.91;5100486;28;20050;-71
2022/02/02 07:07:06;;;;;;;38.33;5.07;;;;;;;7.38;100.00;101964.75;5102158;27;20032;-71
2022/02/02 07:10:52;;;;;;;43.42;8.20;;;;;;;7.39;100.00;101971.78;5106449;27;20123;-72
2022/02/02 07:12:55;;;;;;;36.72;5.43;;;;;;;7.47;100.00;101980.00;5084670;28;20449;-72
2022/02/02 07:15:32;;;;;;;32.35;4.70;;;;;;;7.49;100.00;101986.19;5100361;27;20016;-70
2022/02/02 07:31:39;;;;;;;29.17;3.45;;;;;;;7.61;100.00;101986.81;5097452;27;20046;-72
2022/02/02 07:34:32;;;;;;;32.33;4.38;;;;;;;7.64;100.00;101994.81;5100401;27;20034;-70
2022/02/02 07:37:02;;;;;;;31.55;4.63;;;;;;;7.66;100.00;102008.84;5081709;27;20116;-70
2022/02/02 07:39:32;;;;;;;29.25;4.10;;;;;;;7.68;100.00;102001.97;5099606;27;20036;-71
2022/02/02 07:42:03;;;;;;;32.70;4.88;;;;;;;7.70;100.00;101997.69;5090633;28;20024;-70
2022/02/02 07:44:34;;;;;;;25.85;3.22;;;;;;;7.70;100.00;102008.19;5103928;28;20023;-70
2022/02/02 07:47:04;;;;;;;27.60;3.72;;;;;;;7.69;100.00;102003.78;5107019;27;20034;-70
2022/02/02 07:49:34;;;;;;;29.40;3.40;;;;;;;7.71;100.00;102004.75;5106859;27;20484;-69
2022/02/02 07:52:00;;;;;;;28.60;4.03;;;;;;;7.75;100.00;102019.78;5106442;27;20026;-71
2022/02/02 07:54:32;;;;;;;19.38;3.72;;;;;;;7.75;100.00;102027.63;5099558;27;20106;-70
2022/02/02 07:56:58;;;;;;;19.48;3.42;;;;;;;7.80;100.00;102032.19;5105420;27;20034;-72
2022/02/02 08:01:51;;;;;;;28.10;3.58;;;;;;;7.85;100.00;102028.06;5099301;27;20096;-70
2022/02/02 08:04:19;;;;;;;20.98;4.03;;;;;;;7.87;100.00;102024.72;5080461;28;20114;-71
2022/02/02 08:06:50;;;;;;;29.58;4.22;;;;;;;7.88;100.00;102038.69;5096853;27;20039;-72
2022/02/02 08:09:25;;;;;;;31.38;3.33;;;;;;;7.94;100.00;102039.00;5082811;28;20510;-71
2022/02/02 08:11:54;;;;;;;28.20;3.35;;;;;;;7.96;100.00;102050.44;5089690;28;20494;-71
2022/02/02 08:14:20;;;;;;;17.55;3.10;;;;;;;7.95;100.00;102040.78;5086251;28;20039;-71
2022/02/02 08:16:46;;;;;;;26.90;4.30;;;;;;;7.96;100.00;102041.69;5102660;27;20088;-71
2022/02/02 08:19:11;;;;;;;21.98;3.67;;;;;;;7.96;100.00;102037.31;5110674;27;20031;-72
2022/02/02 08:21:36;;;;;;;19.80;3.55;;;;;;;7.94;100.00;102041.63;5120996;27;20030;-71
2022/02/02 08:24:02;;;;;;;20.88;3.63;;;;;;;7.94;100.00;102046.84;5090630;28;20024;-71
2022/02/02 08:26:27;;;;;;;24.30;4.07;;;;;;;7.90;100.00;102056.28;5102136;28;20059;-71
2022/02/02 08:28:56;;;;;;;19.05;3.50;;;;;;;7.90;100.00;102047.53;5109242;28;20027;-71
2022/02/02 08:31:24;;;;;;;19.38;3.50;;;;;;;7.92;100.00;102064.22;5094284;27;20066;-71
2022/02/02 08:33:50;;;;;;;21.55;3.75;;;;;;;7.98;100.00;102066.25;5093776;27;20119;-71
2022/02/02 08:36:18;;;;;;;29.02;4.05;;;;;;;8.00;100.00;102057.59;5097278;28;20152;-71
2022/02/02 08:41:39;;;;;;;27.83;3.97;;;;;;;7.98;100.00;102048.78;5093055;28;20086;-71
2022/02/02 08:44:10;;;;;;;17.08;3.00;;;;;;;7.98;100.00;102048.78;5098442;27;20019;-70
2022/02/02 08:46:39;;;;;;;19.83;4.35;;;;;;;8.03;100.00;102057.78;5100837;27;20050;-71
2022/02/02 08:49:09;;;;;;;17.23;3.50;;;;;;;8.04;100.00;102056.03;5101597;28;20039;-70
2022/02/02 08:51:40;;;;;;;17.42;2.70;;;;;;;8.05;100.00;102063.09;5115585;27;20122;-70
2022/02/02 08:57:10;;;;;;;21.73;3.35;;;;;;;8.08;100.00;102064.13;5102040;28;20032;-71
2022/02/02 09:02:05;;;;;;;22.23;4.82;;;;;;;8.21;100.00;102083.94;5104875;27;20061;-71
2022/02/02 09:07:15;;;;;;;24.42;3.95;;;;;;;8.28;100.00;102087.75;5100839;28;20165;-71
2022/02/02 09:25:40;;;;;;;14.68;2.95;;;;;;;8.42;100.00;102091.91;5101437;28;20046;-71
2022/02/02 09:36:15;;;;;;;17.67;3.42;;;;;;;8.40;100.00;102100.53;5100153;28;20092;-72
2022/02/02 09:38:40;;;;;;;26.02;3.30;;;;;;;8.46;100.00;102110.44;5085073;28;20024;-72
2022/02/02 09:43:55;;;;;;;17.80;2.75;;;;;;;8.58;100.00;102118.84;5096386;28;20093;-73
2022/02/02 09:46:25;;;;;;;19.25;3.22;;;;;;;8.68;100.00;102117.53;5081415;28;20044;-73
2022/02/02 09:48:55;;;;;;;17.15;2.35;;;;;;;8.67;100.00;102116.66;5115584;27;20030;-73
2022/02/02 09:51:45;;;;;;;15.77;2.97;;;;;;;8.70;100.00;102119.41;5107328;27;20468;-73
2022/02/02 09:54:21;;;;;;;16.50;3.15;;;;;;;8.67;100.00;102110.47;5102979;27;20032;-73
2022/02/02 09:59:29;;;;;;;15.13;2.88;;;;;;;8.82;100.00;102126.00;5115192;27;20355;-72
2022/02/02 10:05:15;;;;;;;16.23;2.95;;;;;;;8.87;100.00;102140.25;5093576;27;20055;-70
2022/02/02 10:10:33;;;;;;;15.43;3.35;;;;;;;8.92;100.00;102151.84;5102686;27;20502;-71
2022/02/02 10:15:55;;;;;;;16.88;2.88;;;;;;;9.01;100.00;102160.16;5104073;27;20092;-70
2022/02/02 10:18:27;;;;;;;22.63;3.10;;;;;;;8.98;100.00;102165.28;5096492;27;20028;-72
2022/02/02 10:20:54;;;;;;;14.38;3.28;;;;;;;8.98;100.00;102173.16;5109158;27;20044;-72
2022/02/02 10:23:27;;;;;;;16.13;3.28;;;;;;;9.00;100.00;102170.59;5110958;27;20032;-72
2022/02/02 10:25:58;;;;;;;13.63;3.38;;;;;;;9.04;100.00;102178.66;5108850;27;20384;-72
2022/02/02 10:28:28;;;;;;;14.20;2.70;;;;;;;9.06;100.00;102177.00;5101747;27;20099;-71
2022/02/02 10:31:03;;;;;;;20.70;4.63;;;;;;;9.07;100.00;102178.78;5085806;28;20035;-72
2022/02/02 10:33:30;;;;;;;26.98;3.58;;;;;;;9.07;100.00;102189.28;5106932;27;20028;-71
2022/02/02 10:36:19;;;;;;;14.27;3.60;;;;;;;9.05;100.00;102193.59;5088098;27;20052;-73
2022/02/02 10:39:06;;;;;;;13.68;3.00;;;;;;;9.15;100.00;102196.63;5109020;27;20056;-72
2022/02/02 10:41:55;;;;;;;9.27;2.88;;;;;;;9.22;100.00;102196.94;5114779;27;20019;-71
2022/02/02 10:44:32;;;;;;;15.57;2.60;;;;;;;9.30;100.00;102194.66;5099257;27;20026;-71
2022/02/02 10:47:26;;;;;;;22.30;3.03;;;;;;;9.33;100.00;102196.53;5098439;27;21711;-71
2022/02/02 10:50:31;;;;;;;13.35;3.35;;;;;;;9.34;100.00;102187.81;5110483;27;20035;-72
2022/02/02 10:53:11;;;;;;;17.00;2.67;;;;;;;9.26;100.00;102197.97;5102709;27;20123;-72
2022/02/02 10:56:03;;;;;;;15.20;2.53;;;;;;;9.32;100.00;102198.25;5107251;27;20120;-72
2022/02/02 11:06:38;;;;;;;22.20;3.22;;;;;;;9.49;100.00;102196.34;5102237;27;20180;-72
2022/02/02 11:09:05;;;;;;;14.18;3.30;;;;;;;9.58;100.00;102201.13;5100429;27;20386;-72
2022/02/02 11:11:31;;;;;;;19.10;3.22;;;;;;;9.59;100.00;102203.81;5113666;27;20062;-71
2022/02/02 11:14:09;;;;;;;10.40;2.80;;;;;;;9.67;100.00;102205.84;5101550;27;20028;-71
2022/02/02 11:16:38;;;;;;;12.82;3.42;;;;;;;9.79;100.00;102204.66;5110599;27;20079;-71
2022/02/02 11:19:07;;;;;;;12.13;3.15;;;;;;;9.87;100.00;102197.06;5115047;27;20028;-71
2022/02/02 11:21:34;;;;;;;12.30;3.30;;;;;;;9.86;100.00;102197.00;5104554;27;20036;-71
2022/02/02 11:24:17;;;;;;;10.18;2.85;;;;;;;9.92;100.00;102181.50;5096701;28;20387;-71
2022/02/02 11:26:50;;;;;;;19.23;2.97;;;;;;;10.11;100.00;102184.00;5097411;28;20052;-71
2022/02/02 11:29:39;;;;;;;13.43;2.70;;;;;;;10.33;100.00;102189.25;5097004;27;20027;-71
2022/02/02 11:32:10;;;;;;;17.00;2.53;;;;;;;10.37;100.00;102191.19;5098560;27;20099;-71
2022/02/02 11:34:36;;;;;;;12.25;2.72;;;;;;;10.28;100.00;102187.34;5104013;27;20027;-70
2022/02/02 11:37:04;;;;;;;12.38;3.40;;;;;;;10.23;100.00;102194.13;5096899;27;20024;-71
2022/02/02 11:39:44;;;;;;;15.77;3.00;;;;;;;10.29;100.00;102190.84;5082201;27;20035;-71
2022/02/02 11:42:51;;;;;;;11.32;2.13;;;;;;;10.33;100.00;102195.38;5104953;27;20333;-71
2022/02/02 11:45:36;;;;;;;12.68;2.30;;;;;;;10.38;100.00;102196.50;5114607;27;20036;-72
2022/02/02 11:48:17;;;;;;;11.98;2.88;;;;;;;10.44;100.00;102188.88;5101418;27;20033;-72
2022/02/02 11:50:53;;;;;;;13.52;2.63;;;;;;;10.41;100.00;102186.09;5105779;27;20106;-71
2022/02/02 11:53:46;;;;;;;15.50;2.95;;;;;;;10.43;100.00;102189.69;5105586;28;20447;-72
2022/02/02 11:56:12;;;;;;;13.82;2.97;;;;;;;10.44;100.00;102191.50;5097905;28;20032;-71
2022/02/02 11:58:37;;;;;;;15.80;2.50;;;;;;;10.40;100.00;102193.94;5099752;27;20020;-71
2022/02/02 12:01:18;;;;;;;12.30;2.38;;;;;;;10.37;100.00;102192.06;5111949;27;20029;-69
2022/02/02 12:09:23;;;;;;;15.68;2.55;;;;;;;10.63;100.00;102179.03;5095814;28;20032;-71
2022/02/02 12:21:01;;;;;;;12.85;2.55;;;;;;;11.04;99.77;102157.69;5103868;27;20044;-70
2022/02/02 12:57:58;;;;;;;12.75;2.60;;;;;;;11.80;92.33;102156.78;5106043;27;20031;-70
2022/02/02 13:00:36;;;;;;;15.05;3.33;;;;;;;11.70;92.80;102149.41;5082132;28;20419;-70
2022/02/02 13:03:04;;;;;;;16.23;3.25;;;;;;;11.42;93.91;102148.50;5102884;28;20067;-70
2022/02/02 13:05:30;;;;;;;18.08;2.58;;;;;;;11.25;95.55;102153.19;5107266;27;20032;-70
2022/02/02 13:07:59;;;;;;;19.65;3.35;;;;;;;11.09;96.84;102162.28;5097560;28;20019;-71
2022/02/02 13:10:26;;;;;;;11.18;2.65;;;;;;;10.99;97.26;102164.53;5086153;28;20153;-70
2022/02/02 13:13:12;;;;;;;15.70;2.53;;;;;;;10.90;97.33;102165.09;5113212;28;20020;-70
2022/02/02 13:18:19;;;;;;;14.88;2.35;;;;;;;10.91;98.77;102165.16;5113310;27;20130;-70
2022/02/02 13:21:35;;;;;;;13.00;2.70;;;;;;;10.98;98.57;102165.38;5081362;28;20024;-71
2022/02/02 13:26:24;;;;;;;14.63;2.72;;;;;;;11.22;97.01;102170.63;5111888;28;20051;-70
2022/02/02 13:31:33;;;;;;;12.55;2.65;;;;;;;10.98;96.16;102153.09;5105928;27;20046;-70
2022/02/02 13:34:06;;;;;;;13.82;2.65;;;;;;;10.65;97.76;102156.31;5101306;27;20023;-69
2022/02/02 13:36:49;;;;;;;10.45;2.00;;;;;;;10.42;98.84;102163.31;5095248;28;20030;-70
2022/02/02 13:42:47;;;;;;;10.55;2.25;;;;;;;10.37;99.63;102170.13;5106155;27;20078;-70
2022/02/02 14:06:56;;;;;;;18.40;2.20;;;;;;;11.11;96.05;102181.69;5102447;27;20039;-70
2022/02/02 14:31:26;;;;;;;9.57;2.10;;;;;;;9.93;100.00;102196.44;5105744;27;19918;-70
2022/02/02 14:33:57;;;;;;;14.35;2.40;;;;;;;9.88;100.00;102209.38;5106487;27;20026;-72
2022/02/02 14:36:27;;;;;;;9.52;2.80;;;;;;;9.81;100.00;102214.31;5103804;27;20031;-73
2022/02/02 14:47:01;;;;;;;12.60;2.08;;;;;;;9.57;100.00;102221.22;5115251;27;20028;-71
2022/02/02 14:52:23;;;;;;;15.25;2.85;;;;;;;9.56;100.00;102224.72;5109612;28;20051;-72
2022/02/02 14:55:24;;;;;;;18.02;3.47;;;;;;;9.48;100.00;102222.56;5097891;27;20055;-70
2022/02/02 15:25:55;;;;;;;12.02;2.95;;;;;;;9.26;100.00;102200.59;5106171;28;20051;-70
2022/02/02 15:27:44;;;;;;;13.65;3.42;;;;;;;9.22;100.00;102206.56;5088929;27;20043;-70
2022/02/02 15:30:34;;;;;;;10.27;1.85;;;;;;;9.26;100.00;102216.38;5111685;27;20035;-70
2022/02/02 15:32:59;;;;;;;10.27;2.13;;;;;;;9.27;100.00;102207.66;5100864;27;20056;-70
2022/02/02 15:35:26;;;;;;;10.88;1.90;;;;;;;9.26;100.00;102204.16;5107896;27;20447;-70
2022/02/02 15:40:18;;;;;;;14.77;2.25;;;;;;;9.27;100.00;102210.28;5100381;27;20043;-73
2022/02/02 15:58:47;;;;;;;7.93;1.58;;;;;;;9.10;100.00;102201.66;5106166;27;20051;-72
2022/02/02 16:03:42;;;;;;;11.20;2.10;;;;;;;9.07;100.00;102205.03;5104165;27;20035;-72
2022/02/02 16:06:16;;;;;;;9.68;1.60;;;;;;;9.06;100.00;102199.72;5101399;27;20028;-70
2022/02/02 16:08:44;;;;;;;10.25;2.05;;;;;;;9.03;100.00;102192.59;5104041;28;20024;-72
2022/02/02 16:11:20;;;;;;;17.02;2.50;;;;;;;9.04;100.00;102202.28;5105807;27;20020;-71
2022/02/02 16:13:49;;;;;;;10.52;1.83;;;;;;;9.01;100.00;102199.53;5108948;27;20034;-72
2022/02/02 16:16:41;;;;;;;15.02;2.05;;;;;;;9.04;100.00;102196.16;5106663;27;20072;-72
2022/02/02 16:32:49;;;;;;;14.95;2.95;;;;;;;8.88;100.00;102192.81;5111025;27;20077;-71
2022/02/02 16:38:06;;;;;;;21.83;3.55;;;;;;;8.86;100.00;102194.50;5104645;27;20120;-71
2022/02/02 16:40:34;;;;;;;15.52;3.30;;;;;;;8.88;100.00;102200.69;5099421;28;20122;-70
2022/02/02 16:43:15;;;;;;;14.63;3.13;;;;;;;8.89;100.00;102205.13;5085292;28;20035;-71
2022/02/02 16:45:43;;;;;;;14.00;3.58;;;;;;;8.85;100.00;102208.44;5089682;28;20050;-71
2022/02/02 16:48:09;;;;;;;8.70;3.20;;;;;;;8.87;100.00;102208.50;5092834;27;20026;-70
2022/02/02 16:50:41;;;;;;;6.90;3.35;;;;;;;8.85;100.00;102208.44;5091408;28;20040;-70
2022/02/02 16:53:15;;;;;;;10.93;4.05;;;;;;;8.89;100.00;102214.72;5080358;28;20027;-70
2022/02/02 17:24:11;;;;;;;12.80;3.78;;;;;;;8.91;100.00;102203.47;5082812;28;20105;-71
2022/02/02 17:30:30;;;;;;;13.07;6.93;;;;;;;8.64;100.00;102205.75;5078886;28;20082;-71
2022/02/02 17:38:15;;;;;;;13.88;6.65;;;;;;;8.66;100.00;102214.56;5079699;28;20035;-71
2022/02/02 17:41:02;;;;;;;13.50;7.18;;;;;;;8.61;100.00;102213.44;5057729;28;20028;-72
2022/02/02 17:44:04;;;;;;;13.10;7.85;;;;;;;8.66;100.00;102219.81;5074448;28;20453;-71
2022/02/02 17:58:27;;;;;;;15.40;7.20;;;;;;;8.58;100.00;102221.19;5102337;28;20399;-72
2022/02/02 18:21:18;;;;;;;18.53;9.50;;;;;;;8.60;100.00;102209.06;5109551;28;20352;-73
2022/02/02 18:26:35;;;;;;;22.88;10.98;;;;;;;8.56;100.00;102193.97;5095598;28;20036;-71
2022/02/02 18:36:32;;;;;;;23.33;12.60;;;;;;;8.61;100.00;102200.31;5101120;28;20340;-72
2022/02/02 18:40:19;;;;;;;25.48;12.60;;;;;;;8.62;100.00;102202.13;5100907;28;20032;-73
2022/02/02 18:46:48;;;;;;;26.08;13.48;;;;;;;8.55;100.00;102210.56;5103998;28;20109;-72
2022/02/02 19:05:27;;;;;;;24.73;14.27;;;;;;;8.41;100.00;102194.09;5100102;28;20046;-70
2022/02/02 19:38:28;;;;;;;42.50;18.63;;;;;;;8.49;100.00;102184.94;5104996;28;20157;-71
2022/02/02 19:57:21;;;;;;;40.08;16.83;;;;;;;8.47;100.00;102175.19;5099749;27;20042;-70
2022/02/02 20:05:47;;;;;;;34.22;17.10;;;;;;;8.44;100.00;102165.41;5097967;28;20535;-71
2022/02/02 20:11:19;;;;;;;40.10;16.85;;;;;;;8.48;100.00;102174.34;5071489;27;20407;-72
2022/02/02 20:13:44;;;;;;;41.33;18.35;;;;;;;8.46;100.00;102168.13;5081258;28;20024;-69
2022/02/02 20:16:09;;;;;;;36.05;17.13;;;;;;;8.50;100.00;102177.94;5088555;28;20484;-70
2022/02/02 20:18:39;;;;;;;37.30;17.27;;;;;;;8.51;100.00;102177.13;5094939;28;20035;-71
2022/02/02 20:21:08;;;;;;;35.00;16.25;;;;;;;8.51;100.00;102167.53;5100992;28;20502;-70
2022/02/02 20:23:40;;;;;;;33.15;14.88;;;;;;;8.54;100.00;102158.91;5108302;27;20102;-71
2022/02/02 20:26:07;;;;;;;31.55;15.25;;;;;;;8.51;100.00;102161.38;5078594;28;20110;-71
2022/02/02 20:28:33;;;;;;;30.27;14.20;;;;;;;8.50;100.00;102162.22;5098292;28;20028;-70
2022/02/02 20:30:58;;;;;;;28.08;12.63;;;;;;;8.49;100.00;102163.03;5094516;28;20073;-69
2022/02/02 20:33:23;;;;;;;31.23;12.70;;;;;;;8.48;100.00;102161.22;5107208;28;20031;-70
2022/02/02 20:35:49;;;;;;;28.35;12.43;;;;;;;8.47;100.00;102160.34;5104155;27;20540;-70
2022/02/02 20:38:14;;;;;;;28.60;12.13;;;;;;;8.48;100.00;102161.22;5099404;28;20030;-70
2022/02/02 20:40:39;;;;;;;25.75;11.45;;;;;;;8.49;100.00;102168.28;5100342;28;20393;-72
2022/02/02 20:43:09;;;;;;;26.05;12.00;;;;;;;8.46;100.00;102166.41;5105773;28;20027;-70
2022/02/02 20:46:02;;;;;;;21.67;12.18;;;;;;;8.48;100.00;102171.72;5083232;28;20489;-70
2022/02/02 21:04:47;;;;;;;18.70;8.10;;;;;;;8.49;100.00;102158.69;5097172;28;19912;-70
2022/02/02 21:14:47;;;;;;;13.40;6.95;;;;;;;8.52;100.00;102158.84;5114317;28;20105;-71
2022/02/02 21:17:25;;;;;;;15.07;6.40;;;;;;;8.53;100.00;102160.63;5115454;28;20062;-71
2022/02/02 21:20:08;;;;;;;15.18;6.05;;;;;;;8.55;100.00;102160.69;5101962;28;20039;-70
2022/02/02 21:22:45;;;;;;;16.10;6.30;;;;;;;8.55;100.00;102165.94;5091780;28;20106;-71
2022/02/02 21:27:57;;;;;;;20.10;5.95;;;;;;;8.56;100.00;102145.03;5099818;28;20042;-71
2022/02/02 21:30:23;;;;;;;12.38;5.72;;;;;;;8.55;100.00;102151.09;5101446;28;20028;-70
2022/02/02 21:32:49;;;;;;;10.70;5.15;;;;;;;8.57;100.00;102146.84;5100827;28;20028;-71
2022/02/02 21:35:16;;;;;;;15.45;6.35;;;;;;;8.64;100.00;102158.50;5103793;28;20036;-70
2022/02/02 21:37:47;;;;;;;16.33;5.85;;;;;;;8.62;100.00;102154.91;5102373;28;20050;-71
2022/02/02 21:40:23;;;;;;;18.35;5.80;;;;;;;8.64;100.00;102154.97;5114979;27;20020;-72
2022/02/02 21:42:50;;;;;;;9.35;5.47;;;;;;;8.64;100.00;102169.00;5110555;27;20028;-71
2022/02/02 21:45:17;;;;;;;15.23;5.43;;;;;;;8.69;100.00;102162.22;5107675;28;20028;-71
2022/02/02 21:47:43;;;;;;;12.95;5.85;;;;;;;8.67;100.00;102158.63;5112676;27;20028;-71
2022/02/02 21:50:12;;;;;;;15.25;6.03;;;;;;;8.60;100.00;102157.47;5102337;27;20549;-71
2022/02/02 21:52:38;;;;;;;10.70;5.60;;;;;;;8.68;100.00;102162.16;5108773;27;20539;-71
2022/02/02 21:55:05;;;;;;;16.08;5.57;;;;;;;8.68;100.00;102152.56;5104407;27;20106;-71
2022/02/02 21:57:31;;;;;;;13.02;5.57;;;;;;;8.63;100.00;102143.59;5092546;28;20020;-70
2022/02/02 21:59:56;;;;;;;7.57;5.43;;;;;;;8.68;100.00;102143.78;5105979;27;20031;-71
2022/02/02 22:02:21;;;;;;;11.50;5.63;;;;;;;8.65;100.00;102149.78;5101874;27;20020;-72
2022/02/02 22:04:47;;;;;;;9.85;5.28;;;;;;;8.66;100.00;102145.44;5101891;28;20158;-73
2022/02/02 22:07:12;;;;;;;15.40;5.40;;;;;;;8.72;100.00;102141.38;5116135;27;20047;-72
2022/02/02 22:09:38;;;;;;;11.43;5.30;;;;;;;8.70;100.00;102148.28;5100394;28;20031;-72
2022/02/02 22:12:03;;;;;;;10.88;5.65;;;;;;;8.69;100.00;102146.47;5106918;27;20051;-72